createdAt,value
2023-05-13T00:01:27.754Z,3.10
2023-05-13T00:03:55.936Z,3.00
2023-05-13T00:06:24.690Z,3.07
2023-05-13T00:08:54.296Z,3.10
2023-05-13T00:11:24.548Z,3.50
2023-05-13T00:13:53.298Z,3.97
2023-05-13T00:16:24.206Z,3.90
2023-05-13T00:18:52.764Z,3.60
2023-05-13T00:21:21.305Z,4.60
2023-05-13T00:23:49.529Z,3.60
2023-05-13T00:26:18.892Z,4.10
2023-05-13T00:28:49.757Z,4.23
2023-05-13T00:31:19.806Z,3.93
2023-05-13T00:33:51.817Z,4.10
2023-05-13T00:36:19.914Z,4.10
2023-05-13T00:38:47.844Z,3.90
2023-05-13T00:41:16.384Z,3.37
2023-05-13T00:43:46.357Z,3.50
2023-05-13T00:46:15.950Z,3.30
2023-05-13T00:48:44.783Z,3.07
2023-05-13T00:51:13.046Z,3.30
2023-05-13T00:53:43.760Z,3.30
2023-05-13T00:56:12.133Z,3.40
2023-05-13T00:58:39.995Z,3.30
2023-05-13T01:01:19.288Z,3.53
2023-05-13T01:03:54.688Z,3.50
2023-05-13T01:06:29.001Z,3.17
2023-05-13T01:09:04.142Z,3.37
2023-05-13T01:11:38.658Z,3.43
2023-05-13T01:14:12.490Z,3.00
2023-05-13T01:16:47.936Z,3.27
2023-05-13T01:19:32.792Z,3.37
2023-05-13T01:22:03.412Z,3.07
2023-05-13T01:24:31.666Z,3.00
2023-05-13T01:27:00.263Z,3.50
2023-05-13T01:29:29.055Z,2.40
2023-05-13T01:31:58.261Z,2.73
2023-05-13T01:34:27.550Z,2.90
2023-05-13T01:36:56.746Z,2.47
2023-05-13T01:39:26.853Z,3.30
2023-05-13T01:41:55.058Z,3.27
2023-05-13T01:44:24.153Z,3.10
2023-05-13T01:46:53.693Z,2.47
2023-05-13T01:49:22.246Z,2.90
2023-05-13T01:51:50.737Z,2.80
2023-05-13T01:54:23.291Z,3.03
2023-05-13T01:56:53.373Z,3.20
2023-05-13T01:59:21.795Z,2.90
2023-05-13T02:01:50.429Z,3.63
2023-05-13T02:04:19.178Z,2.80
2023-05-13T02:06:47.699Z,3.20
2023-05-13T02:09:16.338Z,3.50
2023-05-13T02:11:44.370Z,3.30
2023-05-13T02:14:17.182Z,3.93
2023-05-13T02:16:45.461Z,3.50
2023-05-13T02:19:13.630Z,3.40
2023-05-13T02:21:43.581Z,4.80
2023-05-13T02:24:11.694Z,3.00
2023-05-13T02:26:41.631Z,3.17
2023-05-13T02:29:10.295Z,3.20
2023-05-13T02:31:41.311Z,3.33
2023-05-13T02:34:09.626Z,3.10
2023-05-13T02:36:38.236Z,3.00
2023-05-13T02:39:06.373Z,2.70
2023-05-13T02:41:34.632Z,3.50
2023-05-13T02:44:03.349Z,4.00
2023-05-13T02:46:31.517Z,3.20
2023-05-13T02:49:00.938Z,3.80
2023-05-13T02:51:29.309Z,3.13
2023-05-13T02:53:57.216Z,4.03
2023-05-13T02:56:25.150Z,3.90
2023-05-13T02:58:53.584Z,3.87
2023-05-13T03:01:21.735Z,4.53
2023-05-13T03:03:49.881Z,3.27
2023-05-13T03:06:19.722Z,3.60
2023-05-13T03:08:47.790Z,3.23
2023-05-13T03:11:15.944Z,3.40
2023-05-13T03:13:44.403Z,3.60
2023-05-13T03:16:12.402Z,3.20
2023-05-13T03:18:40.445Z,3.87
2023-05-13T03:21:09.090Z,5.13
2023-05-13T03:23:38.773Z,3.10
2023-05-13T03:26:06.797Z,3.97
2023-05-13T03:28:35.499Z,3.90
2023-05-13T03:31:03.916Z,4.00
2023-05-13T03:33:32.143Z,4.20
2023-05-13T03:36:01.401Z,4.37
2023-05-13T03:38:29.399Z,3.73
2023-05-13T03:40:58.779Z,4.20
2023-05-13T03:43:27.228Z,4.23
2023-05-13T03:45:55.283Z,4.27
2023-05-13T03:48:23.841Z,4.33
2023-05-13T03:50:53.089Z,3.90
2023-05-13T03:53:21.156Z,4.57
2023-05-13T03:55:49.729Z,4.13
2023-05-13T03:58:19.304Z,4.33
2023-05-13T04:00:47.792Z,5.20
2023-05-13T04:03:17.773Z,5.80
2023-05-13T04:05:47.777Z,5.03
2023-05-13T04:08:16.543Z,6.13
2023-05-13T04:10:44.890Z,5.60
2023-05-13T04:13:13.101Z,5.17
2023-05-13T04:15:42.962Z,4.90
2023-05-13T04:18:10.941Z,5.40
2023-05-13T04:20:39.666Z,4.70
2023-05-13T04:23:08.624Z,5.10
2023-05-13T04:25:39.491Z,4.57
2023-05-13T04:28:07.451Z,3.50
2023-05-13T04:30:36.358Z,3.53
2023-05-13T04:33:06.842Z,4.30
2023-05-13T04:35:34.953Z,3.90
2023-05-13T04:38:04.233Z,4.00
2023-05-13T04:40:32.340Z,3.43
2023-05-13T04:43:00.450Z,4.47
2023-05-13T04:45:28.883Z,3.13
2023-05-13T04:47:58.433Z,3.87
2023-05-13T04:50:28.327Z,3.90
2023-05-13T04:52:57.286Z,3.47
2023-05-13T04:55:27.591Z,5.13
2023-05-13T04:57:55.827Z,3.80
2023-05-13T05:00:24.342Z,2.83
2023-05-13T05:02:52.437Z,3.50
2023-05-13T05:05:20.865Z,2.93
2023-05-13T05:07:51.016Z,3.27
2023-05-13T05:10:19.408Z,2.90
2023-05-13T05:12:47.703Z,2.50
2023-05-13T05:15:17.477Z,3.33
2023-05-13T05:17:46.192Z,2.67
2023-05-13T05:20:14.613Z,3.50
2023-05-13T05:22:43.437Z,2.77
2023-05-13T05:25:13.163Z,3.93
2023-05-13T05:27:41.213Z,3.37
2023-05-13T05:30:12.110Z,3.83
2023-05-13T05:32:40.276Z,3.70
2023-05-13T05:35:09.123Z,3.37
2023-05-13T05:37:37.538Z,2.87
2023-05-13T05:40:06.727Z,2.40
2023-05-13T05:42:36.703Z,2.53
2023-05-13T05:45:05.599Z,3.30
2023-05-13T05:47:34.293Z,3.20
2023-05-13T05:50:02.607Z,3.23
2023-05-13T05:52:30.637Z,3.47
2023-05-13T05:54:59.090Z,3.73
2023-05-13T05:57:27.166Z,3.27
2023-05-13T05:59:57.052Z,3.77
2023-05-13T06:02:25.205Z,3.03
2023-05-13T06:04:53.961Z,3.20
2023-05-13T06:07:21.971Z,3.17
2023-05-13T06:09:50.814Z,3.00
2023-05-13T06:12:19.493Z,2.93
2023-05-13T06:14:48.079Z,2.80
2023-05-13T06:17:17.696Z,2.73
2023-05-13T06:19:47.971Z,2.77
2023-05-13T06:22:16.539Z,2.33
2023-05-13T06:24:44.940Z,3.27
2023-05-13T06:27:13.495Z,2.93
2023-05-13T06:29:41.420Z,3.07
2023-05-13T06:32:09.969Z,2.73
2023-05-13T06:34:40.170Z,2.77
2023-05-13T06:37:08.584Z,3.17
2023-05-13T06:39:37.056Z,2.73
2023-05-13T06:42:05.708Z,2.50
2023-05-13T06:44:33.916Z,3.77
2023-05-13T06:47:03.258Z,3.00
2023-05-13T06:49:31.700Z,3.27
2023-05-13T06:52:01.132Z,3.17
2023-05-13T06:54:29.551Z,3.23
2023-05-13T06:56:57.588Z,3.17
2023-05-13T06:59:26.234Z,3.03
2023-05-13T07:01:54.242Z,4.10
2023-05-13T07:04:22.515Z,3.50
2023-05-13T07:06:52.136Z,3.00
2023-05-13T07:09:21.626Z,3.30
2023-05-13T07:11:49.856Z,2.80
2023-05-13T07:14:18.406Z,2.87
2023-05-13T07:16:46.716Z,3.00
2023-05-13T07:19:14.961Z,3.70
2023-05-13T07:21:43.450Z,3.03
2023-05-13T07:24:11.798Z,3.03
2023-05-13T07:26:41.441Z,3.23
2023-05-13T07:29:09.868Z,3.30
2023-05-13T07:31:38.266Z,3.27
2023-05-13T07:34:07.002Z,3.03
2023-05-13T07:36:35.569Z,2.90
2023-05-13T07:39:03.608Z,2.00
2023-05-13T07:41:31.510Z,2.23
2023-05-13T07:44:01.395Z,2.03
2023-05-13T07:46:29.604Z,2.20
2023-05-13T07:48:57.632Z,2.40
2023-05-13T07:51:26.149Z,2.60
2023-05-13T07:53:54.084Z,2.23
2023-05-13T07:56:22.355Z,2.80
2023-05-13T07:58:51.363Z,2.10
2023-05-13T08:01:20.968Z,1.77
2023-05-13T08:03:49.309Z,2.00
2023-05-13T08:06:17.627Z,2.40
2023-05-13T08:08:45.849Z,2.00
2023-05-13T08:11:15.790Z,2.00
2023-05-13T08:13:44.448Z,1.70
2023-05-13T08:16:13.395Z,2.03
2023-05-13T08:18:43.538Z,1.77
2023-05-13T08:21:12.394Z,1.43
2023-05-13T08:23:44.936Z,1.90
2023-05-13T08:26:15.075Z,1.80
2023-05-13T08:28:43.074Z,2.13
2023-05-13T08:31:12.707Z,1.97
2023-05-13T08:33:43.515Z,1.93
2023-05-13T08:36:11.906Z,2.30
2023-05-13T08:38:39.936Z,2.10
2023-05-13T08:41:08.962Z,1.73
2023-05-13T08:43:39.811Z,2.47
2023-05-13T08:46:12.555Z,1.77
2023-05-13T08:48:43.217Z,1.87
2023-05-13T08:51:12.251Z,1.80
2023-05-13T08:53:41.608Z,1.50
2023-05-13T08:56:10.808Z,1.67
2023-05-13T08:58:39.538Z,1.60
2023-05-13T09:01:08.622Z,1.90
2023-05-13T09:03:37.105Z,1.43
2023-05-13T09:06:07.278Z,1.70
2023-05-13T09:08:36.638Z,1.50
2023-05-13T09:11:05.587Z,1.60
2023-05-13T09:13:33.824Z,2.30
2023-05-13T09:16:03.481Z,1.30
2023-05-13T09:18:33.113Z,2.00
2023-05-13T09:21:23.197Z,1.70
2023-05-13T09:23:52.192Z,1.87
2023-05-13T09:26:29.295Z,2.13
2023-05-13T09:29:23.092Z,1.87
2023-05-13T09:31:53.043Z,1.40
2023-05-13T09:34:29.655Z,1.70
2023-05-13T09:37:04.611Z,1.70
2023-05-13T09:39:35.130Z,1.33
2023-05-13T09:42:05.337Z,1.30
2023-05-13T09:44:34.144Z,1.63
2023-05-13T09:47:03.986Z,2.13
2023-05-13T09:49:33.145Z,1.73
2023-05-13T09:52:02.992Z,1.60
2023-05-13T09:54:37.698Z,1.47
2023-05-13T09:57:06.739Z,1.60
2023-05-13T09:59:35.741Z,1.40
2023-05-13T10:02:07.490Z,1.47
2023-05-13T10:04:36.514Z,1.60
2023-05-13T10:07:07.120Z,1.30
2023-05-13T10:09:38.377Z,1.20
2023-05-13T10:12:09.796Z,1.50
2023-05-13T10:14:38.821Z,1.53
2023-05-13T10:17:07.904Z,1.63
2023-05-13T10:19:36.858Z,1.80
2023-05-13T10:22:08.205Z,1.80
2023-05-13T10:24:38.617Z,1.50
2023-05-13T10:27:08.669Z,1.50
2023-05-13T10:29:40.734Z,1.30
2023-05-13T10:32:11.118Z,1.40
2023-05-13T10:34:41.158Z,1.60
2023-05-13T10:37:24.762Z,1.60
2023-05-13T10:40:12.773Z,1.73
2023-05-13T10:42:48.943Z,1.47
2023-05-13T10:45:18.499Z,1.73
2023-05-13T10:47:53.033Z,1.50
2023-05-13T10:50:27.858Z,1.67
2023-05-13T10:53:00.677Z,1.53
2023-05-13T10:55:29.397Z,1.47
2023-05-13T10:58:12.632Z,1.90
2023-05-13T11:00:41.514Z,2.80
2023-05-13T11:03:15.313Z,1.70
2023-05-13T11:05:46.972Z,2.00
2023-05-13T11:08:41.981Z,1.57
2023-05-13T11:11:28.727Z,1.50
2023-05-13T11:14:04.261Z,1.30
2023-05-13T11:16:32.662Z,1.40
2023-05-13T11:19:03.375Z,1.50
2023-05-13T11:21:33.086Z,1.30
2023-05-13T11:24:05.662Z,1.47
2023-05-13T11:26:47.242Z,1.60
2023-05-13T11:29:15.887Z,1.33
2023-05-13T11:31:46.895Z,1.07
2023-05-13T11:34:17.619Z,1.17
2023-05-13T11:36:48.044Z,1.33
2023-05-13T11:39:20.148Z,1.00
2023-05-13T11:41:49.387Z,1.10
2023-05-13T11:44:20.785Z,1.03
2023-05-13T11:46:54.195Z,1.30
2023-05-13T11:49:33.996Z,1.03
2023-05-13T11:52:07.516Z,1.20
2023-05-13T11:54:46.477Z,1.20
2023-05-13T11:57:22.774Z,1.20
2023-05-13T11:59:52.943Z,1.30
2023-05-13T12:02:26.409Z,1.40
2023-05-13T12:04:55.514Z,1.60
2023-05-13T12:07:24.972Z,1.50
2023-05-13T12:09:57.431Z,1.20
2023-05-13T12:12:27.587Z,1.63
2023-05-13T12:14:57.735Z,1.30
2023-05-13T12:17:26.877Z,1.37
2023-05-13T12:20:10.456Z,1.30
2023-05-13T12:22:50.157Z,1.10
2023-05-13T12:25:39.936Z,1.30
2023-05-13T12:28:10.445Z,1.50
2023-05-13T12:30:40.431Z,1.50
2023-05-13T12:33:17.851Z,1.47
2023-05-13T12:35:48.516Z,1.30
2023-05-13T12:38:18.797Z,1.40
2023-05-13T12:40:49.994Z,1.00
2023-05-13T12:43:20.447Z,1.40
2023-05-13T12:45:54.330Z,1.17
2023-05-13T12:48:26.226Z,1.13
2023-05-13T12:50:54.953Z,1.40
2023-05-13T12:53:23.655Z,1.70
2023-05-13T12:55:53.934Z,1.60
2023-05-13T12:58:23.568Z,1.60
2023-05-13T13:00:52.393Z,1.63
2023-05-13T13:03:24.254Z,1.40
2023-05-13T13:05:53.300Z,1.73
2023-05-13T13:08:22.598Z,1.60
2023-05-13T13:10:53.398Z,1.80
2023-05-13T13:13:21.907Z,1.87
2023-05-13T13:15:50.716Z,1.63
2023-05-13T13:18:19.914Z,1.63
2023-05-13T13:20:48.521Z,1.63
2023-05-13T13:23:17.404Z,1.90
2023-05-13T13:25:46.257Z,1.30
2023-05-13T13:28:16.377Z,1.30
2023-05-13T13:30:47.492Z,1.33
2023-05-13T13:33:17.612Z,1.60
2023-05-13T13:35:47.448Z,1.50
2023-05-13T13:38:16.299Z,1.57
2023-05-13T13:40:45.390Z,1.53
2023-05-13T13:43:15.744Z,1.50
2023-05-13T13:45:44.502Z,1.50
2023-05-13T13:48:15.152Z,1.80
2023-05-13T13:50:45.418Z,1.87
2023-05-13T13:53:19.116Z,1.70
2023-05-13T13:55:48.400Z,1.60
2023-05-13T13:58:19.483Z,1.90
2023-05-13T14:00:49.859Z,1.37
2023-05-13T14:03:19.021Z,1.53
2023-05-13T14:05:48.982Z,1.47
2023-05-13T14:08:17.621Z,1.80
2023-05-13T14:10:49.841Z,1.73
2023-05-13T14:13:20.107Z,1.57
2023-05-13T14:15:48.692Z,1.80
2023-05-13T14:18:17.743Z,1.57
2023-05-13T14:20:47.666Z,1.87
2023-05-13T14:23:16.040Z,1.77
2023-05-13T14:25:44.970Z,2.00
2023-05-13T14:28:16.028Z,2.40
2023-05-13T14:30:46.238Z,1.67
2023-05-13T14:33:15.281Z,2.10
2023-05-13T14:35:44.179Z,1.90
2023-05-13T14:38:13.351Z,1.70
2023-05-13T14:40:41.913Z,1.83
2023-05-13T14:43:10.535Z,2.13
2023-05-13T14:45:39.472Z,1.40
2023-05-13T14:48:09.149Z,1.80
2023-05-13T14:50:39.371Z,2.27
2023-05-13T14:53:09.151Z,2.10
2023-05-13T14:55:37.621Z,1.77
2023-05-13T14:58:08.266Z,2.03
2023-05-13T15:00:38.210Z,1.60
2023-05-13T15:03:09.314Z,1.80
2023-05-13T15:05:38.535Z,1.60
2023-05-13T15:08:07.344Z,2.30
2023-05-13T15:10:36.831Z,2.23
2023-05-13T15:13:05.524Z,1.57
2023-05-13T15:15:34.702Z,1.53
2023-05-13T15:18:03.202Z,1.87
2023-05-13T15:20:33.159Z,2.07
2023-05-13T15:23:01.509Z,2.03
2023-05-13T15:25:30.405Z,1.87
2023-05-13T15:27:58.868Z,1.63
2023-05-13T15:30:27.468Z,3.70
2023-05-13T15:32:56.256Z,2.93
2023-05-13T15:35:25.139Z,2.03
2023-05-13T15:37:55.003Z,1.80
2023-05-13T15:40:24.031Z,2.17
2023-05-13T15:42:52.821Z,1.60
2023-05-13T15:45:21.612Z,1.60
2023-05-13T15:47:50.692Z,2.00
2023-05-13T15:50:19.727Z,2.80
2023-05-13T15:52:48.196Z,1.80
2023-05-13T15:55:18.403Z,1.90
2023-05-13T15:57:48.896Z,1.97
2023-05-13T16:00:20.222Z,2.13
2023-05-13T16:02:48.929Z,2.00
2023-05-13T16:05:20.037Z,2.47
2023-05-13T16:07:48.461Z,2.03
2023-05-13T16:10:19.052Z,2.87
2023-05-13T16:12:47.548Z,2.43
2023-05-13T16:15:15.873Z,1.90
2023-05-13T16:17:44.490Z,1.87
2023-05-13T16:20:15.046Z,2.00
2023-05-13T16:22:43.573Z,2.13
2023-05-13T16:25:12.884Z,2.00
2023-05-13T16:27:43.947Z,2.30
2023-05-13T16:30:13.441Z,2.90
2023-05-13T16:32:42.140Z,2.40
2023-05-13T16:35:13.173Z,2.60
2023-05-13T16:37:41.646Z,2.63
2023-05-13T16:40:11.954Z,2.70
2023-05-13T16:42:41.347Z,2.50
2023-05-13T16:45:11.906Z,2.67
2023-05-13T16:47:40.619Z,2.50
2023-05-13T16:50:10.397Z,2.00
2023-05-13T16:52:39.112Z,3.47
2023-05-13T16:55:09.098Z,3.00
2023-05-13T16:57:38.176Z,2.50
2023-05-13T17:00:08.608Z,3.20
2023-05-13T17:02:39.276Z,2.40
2023-05-13T17:05:08.325Z,3.47
2023-05-13T17:07:36.616Z,3.20
2023-05-13T17:10:06.410Z,2.80
2023-05-13T17:12:35.201Z,3.63
2023-05-13T17:15:04.734Z,2.90
2023-05-13T17:17:33.380Z,3.40
2023-05-13T17:20:03.645Z,2.90
2023-05-13T17:22:31.809Z,3.00
2023-05-13T17:25:00.878Z,3.63
2023-05-13T17:27:28.947Z,3.60
2023-05-13T17:29:57.168Z,4.23
2023-05-13T17:32:26.157Z,4.40
2023-05-13T17:34:54.544Z,3.40
2023-05-13T17:37:24.273Z,3.73
2023-05-13T17:39:53.298Z,3.80
2023-05-13T17:42:21.816Z,3.40
2023-05-13T17:44:50.000Z,4.10
2023-05-13T17:47:18.686Z,4.10
2023-05-13T17:49:47.329Z,4.20
2023-05-13T17:52:15.645Z,4.07
2023-05-13T17:54:45.787Z,3.80
2023-05-13T17:57:14.506Z,3.90
2023-05-13T17:59:43.526Z,4.23
2023-05-13T18:02:12.434Z,3.50
2023-05-13T18:04:41.201Z,3.30
2023-05-13T18:07:09.886Z,4.30
2023-05-13T18:09:38.739Z,4.97
2023-05-13T18:12:09.415Z,4.77
2023-05-13T18:14:39.105Z,3.20
2023-05-13T18:17:07.509Z,4.50
2023-05-13T18:19:38.863Z,4.30
2023-05-13T18:22:09.144Z,3.90
2023-05-13T18:24:38.458Z,3.80
2023-05-13T18:27:09.112Z,3.90
2023-05-13T18:29:38.310Z,4.10
2023-05-13T18:32:07.118Z,4.03
2023-05-13T18:34:36.262Z,5.07
2023-05-13T18:37:04.523Z,3.63
2023-05-13T18:39:32.833Z,5.63
2023-05-13T18:42:01.502Z,4.03
2023-05-13T18:44:31.160Z,3.30
2023-05-13T18:46:59.703Z,4.33
2023-05-13T18:49:29.130Z,3.83
2023-05-13T18:51:57.271Z,3.63
2023-05-13T18:54:29.643Z,3.50
2023-05-13T18:56:57.831Z,3.17
2023-05-13T18:59:26.434Z,3.90
2023-05-13T19:01:56.770Z,4.60
2023-05-13T19:04:25.618Z,3.80
2023-05-13T19:06:54.763Z,4.30
2023-05-13T19:09:23.246Z,3.37
2023-05-13T19:11:52.229Z,4.70
2023-05-13T19:14:21.041Z,4.07
2023-05-13T19:16:50.139Z,4.10
2023-05-13T19:19:19.992Z,3.37
2023-05-13T19:21:49.142Z,3.57
2023-05-13T19:24:17.562Z,4.10
2023-05-13T19:26:45.936Z,4.50
2023-05-13T19:29:14.946Z,4.27
2023-05-13T19:31:43.333Z,3.77
2023-05-13T19:34:12.021Z,3.80
2023-05-13T19:36:42.241Z,3.60
2023-05-13T19:39:11.646Z,4.50
2023-05-13T19:41:40.459Z,4.00
2023-05-13T19:44:09.238Z,3.60
2023-05-13T19:46:37.967Z,3.83
2023-05-13T19:49:07.127Z,3.87
2023-05-13T19:51:35.589Z,3.57
2023-05-13T19:54:07.350Z,3.53
2023-05-13T19:56:35.940Z,4.70
2023-05-13T19:59:04.438Z,3.53
2023-05-13T20:01:33.235Z,3.90
2023-05-13T20:04:01.563Z,3.97
2023-05-13T20:06:31.346Z,3.30
2023-05-13T20:09:01.428Z,3.43
2023-05-13T20:11:31.637Z,3.47
2023-05-13T20:14:00.424Z,3.57
2023-05-13T20:16:29.537Z,3.97
2023-05-13T20:18:58.858Z,4.70
2023-05-13T20:21:27.827Z,5.10
2023-05-13T20:23:57.022Z,4.40
2023-05-13T20:26:28.128Z,4.27
2023-05-13T20:28:59.172Z,4.27
2023-05-13T20:31:27.681Z,4.73
2023-05-13T20:33:56.302Z,4.43
2023-05-13T20:36:25.242Z,5.13
2023-05-13T20:38:54.543Z,4.13
2023-05-13T20:41:23.566Z,4.53
2023-05-13T20:43:53.033Z,5.47
2023-05-13T20:46:23.690Z,4.50
2023-05-13T20:48:52.371Z,4.53
2023-05-13T20:51:22.024Z,4.80
2023-05-13T20:53:53.639Z,4.50
2023-05-13T20:56:22.688Z,4.77
2023-05-13T20:58:51.710Z,4.53
2023-05-13T21:01:20.937Z,4.83
2023-05-13T21:03:51.545Z,5.30
2023-05-13T21:06:22.691Z,4.77
2023-05-13T21:08:51.885Z,4.53
2023-05-13T21:11:25.563Z,4.60
2023-05-13T21:13:54.918Z,4.83
2023-05-13T21:16:23.771Z,4.53
2023-05-13T21:18:53.962Z,4.80
2023-05-13T21:21:22.941Z,4.97
2023-05-13T21:23:51.472Z,5.03
2023-05-13T21:26:20.058Z,4.97
2023-05-13T21:28:49.203Z,3.67
2023-05-13T21:31:18.240Z,5.00
2023-05-13T21:33:46.712Z,4.70
2023-05-13T21:36:17.984Z,5.33
2023-05-13T21:38:47.083Z,5.67
2023-05-13T21:41:16.343Z,5.17
2023-05-13T21:43:46.294Z,4.93
2023-05-13T21:46:15.630Z,4.40
2023-05-13T21:48:44.179Z,4.30
2023-05-13T21:51:13.262Z,5.80
2023-05-13T21:53:44.222Z,4.90
2023-05-13T21:56:12.679Z,4.90
2023-05-13T21:58:41.674Z,6.20
2023-05-13T22:01:10.410Z,5.00
2023-05-13T22:03:39.342Z,5.67
2023-05-13T22:06:09.117Z,5.60
2023-05-13T22:08:37.526Z,5.83
2023-05-13T22:11:08.302Z,6.07
2023-05-13T22:13:37.267Z,6.00
2023-05-13T22:16:06.783Z,6.00
2023-05-13T22:18:36.083Z,5.20
2023-05-13T22:21:06.722Z,6.23
2023-05-13T22:23:36.386Z,6.03
2023-05-13T22:26:07.053Z,6.00
2023-05-13T22:28:35.900Z,5.10
2023-05-13T22:31:04.919Z,5.53
2023-05-13T22:33:33.019Z,5.80
2023-05-13T22:36:01.479Z,6.77
2023-05-13T22:38:30.646Z,6.07
2023-05-13T22:40:59.743Z,6.50
2023-05-13T22:43:29.291Z,6.70
2023-05-13T22:45:58.668Z,6.90
2023-05-13T22:48:27.251Z,5.70
2023-05-13T22:50:57.276Z,5.90
2023-05-13T22:53:27.465Z,6.43
2023-05-13T22:55:56.345Z,6.23
2023-05-13T22:58:24.819Z,5.80
2023-05-13T23:00:55.355Z,5.77
2023-05-13T23:03:23.941Z,7.50
2023-05-13T23:05:52.733Z,5.80
2023-05-13T23:08:21.701Z,7.10
2023-05-13T23:10:50.183Z,7.00
2023-05-13T23:13:19.324Z,6.00
2023-05-13T23:15:53.656Z,6.43
2023-05-13T23:18:24.877Z,8.30
2023-05-13T23:20:56.284Z,9.00
2023-05-13T23:23:24.974Z,9.13
2023-05-13T23:25:55.115Z,8.77
2023-05-13T23:28:25.037Z,8.13
2023-05-13T23:30:56.257Z,11.57
2023-05-13T23:33:27.278Z,11.53
2023-05-13T23:35:57.286Z,11.40
2023-05-13T23:38:26.089Z,7.67
2023-05-13T23:40:54.929Z,7.60
2023-05-13T23:43:24.284Z,7.50
2023-05-13T23:45:53.486Z,8.87
2023-05-13T23:48:22.224Z,10.07
2023-05-13T23:50:52.555Z,10.00
2023-05-13T23:53:21.451Z,9.93
2023-05-13T23:55:50.824Z,9.07
2023-05-13T23:58:20.628Z,8.80
